Frankford, Delaware
Current Conditions -  °F | °C
As of 6:54 PM on Sunday 23 Nov 2014 (Local Time) from KGED Reporting Station
Overcast Overcast  
Wind Chill: 54°   Ceiling: 5500
Heat Index: 54°   Visibility: 10mi
Dew Point: 48°   Wind: 6mph
Humidity: 80%   Direction: 140°SE
Pressure: 30.11"   Gusts: NA
Location:  38.52°N, 75.23°W
Report Text: KGED 232354Z AUTO 14005KT 10SM BKN055 OVC080 12/09 A3011 RMK AO2 SLP195 T01220089 10156 20106 58015
Loading
Personal Weather Stations






























Interactive Weather Map New forecast layout! Learn more

10-Day Weather Forecast

Advertisements
Track Severe Weather on mobile